sensor_id;sensor_type;location;lat;lon;timestamp;pressure;altitude;pressure_sealevel;temperature;humidity
18988;BME280;5494;51.796;10.952;2022-11-20T00:01:38;98629.59;;;-3.80;100.00
18988;BME280;5494;51.796;10.952;2022-11-20T00:04:08;98638.03;;;-3.78;100.00
18988;BME280;5494;51.796;10.952;2022-11-20T00:06:37;98635.50;;;-3.81;100.00
18988;BME280;5494;51.796;10.952;2022-11-20T00:09:05;98627.88;;;-3.81;100.00
18988;BME280;5494;51.796;10.952;2022-11-20T00:11:33;98623.66;;;-3.81;100.00
18988;BME280;5494;51.796;10.952;2022-11-20T00:14:02;98615.19;;;-3.84;100.00
18988;BME280;5494;51.796;10.952;2022-11-20T00:16:32;98609.25;;;-3.83;100.00
18988;BME280;5494;51.796;10.952;2022-11-20T00:19:03;98612.63;;;-3.84;100.00
18988;BME280;5494;51.796;10.952;2022-11-20T00:21:31;98608.41;;;-3.82;100.00
18988;BME280;5494;51.796;10.952;2022-11-20T00:24:00;98609.25;;;-3.79;100.00
18988;BME280;5494;51.796;10.952;2022-11-20T00:26:29;98615.19;;;-3.77;100.00
18988;BME280;5494;51.796;10.952;2022-11-20T00:29:00;98614.34;;;-3.71;100.00
18988;BME280;5494;51.796;10.952;2022-11-20T00:31:30;98612.63;;;-3.78;100.00
18988;BME280;5494;51.796;10.952;2022-11-20T00:34:01;98610.09;;;-3.80;100.00
18988;BME280;5494;51.796;10.952;2022-11-20T00:36:33;98609.28;;;-3.80;100.00
18988;BME280;5494;51.796;10.952;2022-11-20T00:39:02;98612.66;;;-3.83;100.00
18988;BME280;5494;51.796;10.952;2022-11-20T00:41:31;98610.97;;;-3.82;100.00
18988;BME280;5494;51.796;10.952;2022-11-20T00:44:00;98610.09;;;-3.86;100.00
18988;BME280;5494;51.796;10.952;2022-11-20T00:46:28;98610.97;;;-3.82;100.00
18988;BME280;5494;51.796;10.952;2022-11-20T00:48:57;98603.34;;;-3.84;100.00
18988;BME280;5494;51.796;10.952;2022-11-20T00:51:27;98600.78;;;-3.79;100.00
18988;BME280;5494;51.796;10.952;2022-11-20T00:53:57;98598.25;;;-3.79;100.00
18988;BME280;5494;51.796;10.952;2022-11-20T00:56:27;98604.19;;;-3.74;100.00
18988;BME280;5494;51.796;10.952;2022-11-20T00:58:58;98599.94;;;-3.72;100.00
18988;BME280;5494;51.796;10.952;2022-11-20T01:01:27;98594.03;;;-3.68;100.00
18988;BME280;5494;51.796;10.952;2022-11-20T01:03:59;98599.94;;;-3.71;100.00
18988;BME280;5494;51.796;10.952;2022-11-20T01:06:31;98595.69;;;-3.66;100.00
18988;BME280;5494;51.796;10.952;2022-11-20T01:09:04;98597.38;;;-3.59;100.00
18988;BME280;5494;51.796;10.952;2022-11-20T01:11:36;98597.38;;;-3.59;100.00
18988;BME280;5494;51.796;10.952;2022-11-20T01:14:10;98595.72;;;-3.63;100.00
18988;BME280;5494;51.796;10.952;2022-11-20T01:16:42;98591.47;;;-3.70;100.00
18988;BME280;5494;51.796;10.952;2022-11-20T01:19:14;98588.09;;;-3.75;100.00
18988;BME280;5494;51.796;10.952;2022-11-20T01:21:49;98588.97;;;-3.80;100.00
18988;BME280;5494;51.796;10.952;2022-11-20T01:24:20;98587.25;;;-3.75;100.00
18988;BME280;5494;51.796;10.952;2022-11-20T01:26:51;98580.47;;;-3.73;100.00
18988;BME280;5494;51.796;10.952;2022-11-20T01:29:22;98583.84;;;-3.71;100.00
18988;BME280;5494;51.796;10.952;2022-11-20T01:31:52;98585.53;;;-3.73;100.00
18988;BME280;5494;51.796;10.952;2022-11-20T01:34:22;98579.66;;;-3.74;100.00
18988;BME280;5494;51.796;10.952;2022-11-20T01:36:52;98578.78;;;-3.76;100.00
18988;BME280;5494;51.796;10.952;2022-11-20T01:39:25;98574.53;;;-3.80;100.00
18988;BME280;5494;51.796;10.952;2022-11-20T01:41:55;98575.41;;;-3.78;100.00
18988;BME280;5494;51.796;10.952;2022-11-20T01:44:53;98576.25;;;-3.79;100.00
18988;BME280;5494;51.796;10.952;2022-11-20T01:47:31;98560.16;;;-3.79;100.00
18988;BME280;5494;51.796;10.952;2022-11-20T01:50:06;98566.09;;;-3.79;100.00
18988;BME280;5494;51.796;10.952;2022-11-20T01:52:46;98564.38;;;-3.63;100.00
18988;BME280;5494;51.796;10.952;2022-11-20T01:55:22;98551.69;;;-3.63;100.00
18988;BME280;5494;51.796;10.952;2022-11-20T01:57:53;98561.00;;;-3.71;100.00
18988;BME280;5494;51.796;10.952;2022-11-20T02:00:22;98553.41;;;-3.77;100.00
18988;BME280;5494;51.796;10.952;2022-11-20T02:02:57;98554.25;;;-3.80;100.00
18988;BME280;5494;51.796;10.952;2022-11-20T02:05:32;98555.13;;;-3.88;100.00
18988;BME280;5494;51.796;10.952;2022-11-20T02:08:06;98553.41;;;-3.92;100.00
18988;BME280;5494;51.796;10.952;2022-11-20T02:10:35;98549.19;;;-4.06;100.00
18988;BME280;5494;51.796;10.952;2022-11-20T02:13:04;98554.25;;;-4.13;100.00
18988;BME280;5494;51.796;10.952;2022-11-20T02:15:50;98551.69;;;-4.21;100.00
18988;BME280;5494;51.796;10.952;2022-11-20T02:18:21;98555.06;;;-4.28;100.00
18988;BME280;5494;51.796;10.952;2022-11-20T02:20:54;98549.16;;;-4.31;100.00
18988;BME280;5494;51.796;10.952;2022-11-20T02:23:34;98549.16;;;-4.28;100.00
18988;BME280;5494;51.796;10.952;2022-11-20T02:26:12;98547.50;;;-4.29;100.00
18988;BME280;5494;51.796;10.952;2022-11-20T02:28:41;98541.53;;;-4.33;100.00
18988;BME280;5494;51.796;10.952;2022-11-20T02:31:10;98543.25;;;-4.32;100.00
18988;BME280;5494;51.796;10.952;2022-11-20T02:33:38;98542.38;;;-4.34;100.00
18988;BME280;5494;51.796;10.952;2022-11-20T02:36:11;98544.94;;;-4.32;100.00
18988;BME280;5494;51.796;10.952;2022-11-20T02:38:43;98539.03;;;-4.31;100.00
18988;BME280;5494;51.796;10.952;2022-11-20T02:41:13;98543.25;;;-4.32;100.00
18988;BME280;5494;51.796;10.952;2022-11-20T02:43:41;98536.47;;;-4.33;100.00
18988;BME280;5494;51.796;10.952;2022-11-20T02:46:10;98535.63;;;-4.35;100.00
18988;BME280;5494;51.796;10.952;2022-11-20T02:48:38;98537.31;;;-4.36;100.00
18988;BME280;5494;51.796;10.952;2022-11-20T02:51:07;98533.09;;;-4.38;100.00
18988;BME280;5494;51.796;10.952;2022-11-20T02:53:35;98533.09;;;-4.35;100.00
18988;BME280;5494;51.796;10.952;2022-11-20T02:56:05;98530.53;;;-4.35;100.00
18988;BME280;5494;51.796;10.952;2022-11-20T02:58:35;98533.09;;;-4.30;100.00
18988;BME280;5494;51.796;10.952;2022-11-20T03:01:04;98533.09;;;-4.27;100.00
18988;BME280;5494;51.796;10.952;2022-11-20T03:03:32;98537.34;;;-4.31;100.00
18988;BME280;5494;51.796;10.952;2022-11-20T03:06:01;98528.00;;;-4.35;100.00
18988;BME280;5494;51.796;10.952;2022-11-20T03:08:29;98529.72;;;-4.32;100.00
18988;BME280;5494;51.796;10.952;2022-11-20T03:11:03;98528.03;;;-4.32;100.00
18988;BME280;5494;51.796;10.952;2022-11-20T03:13:35;98525.50;;;-4.24;100.00
18988;BME280;5494;51.796;10.952;2022-11-20T03:16:12;98528.00;;;-4.35;100.00
18988;BME280;5494;51.796;10.952;2022-11-20T03:18:42;98529.72;;;-4.45;100.00
18988;BME280;5494;51.796;10.952;2022-11-20T03:21:12;98533.06;;;-4.47;100.00
18988;BME280;5494;51.796;10.952;2022-11-20T03:23:41;98528.88;;;-4.50;100.00
18988;BME280;5494;51.796;10.952;2022-11-20T03:26:15;98526.31;;;-4.51;100.00
18988;BME280;5494;51.796;10.952;2022-11-20T03:28:51;98523.75;;;-4.54;100.00
18988;BME280;5494;51.796;10.952;2022-11-20T03:31:23;98519.53;;;-4.48;100.00
18988;BME280;5494;51.796;10.952;2022-11-20T03:33:52;98523.78;;;-4.48;100.00
18988;BME280;5494;51.796;10.952;2022-11-20T03:36:21;98516.16;;;-4.48;100.00
18988;BME280;5494;51.796;10.952;2022-11-20T03:38:50;98519.56;;;-4.43;100.00
18988;BME280;5494;51.796;10.952;2022-11-20T03:41:20;98510.25;;;-4.40;100.00
18988;BME280;5494;51.796;10.952;2022-11-20T03:43:53;98513.66;;;-4.36;100.00
18988;BME280;5494;51.796;10.952;2022-11-20T03:46:23;98514.47;;;-4.36;100.00
18988;BME280;5494;51.796;10.952;2022-11-20T03:48:52;98502.66;;;-4.35;100.00
18988;BME280;5494;51.796;10.952;2022-11-20T03:51:23;98509.41;;;-4.36;100.00
18988;BME280;5494;51.796;10.952;2022-11-20T03:53:55;98503.50;;;-4.38;100.00
18988;BME280;5494;51.796;10.952;2022-11-20T03:56:25;98495.91;;;-4.33;100.00
18988;BME280;5494;51.796;10.952;2022-11-20T03:58:56;98497.59;;;-4.23;100.00
18988;BME280;5494;51.796;10.952;2022-11-20T04:01:27;98494.22;;;-4.25;100.00
18988;BME280;5494;51.796;10.952;2022-11-20T04:03:57;98493.38;;;-4.24;100.00
18988;BME280;5494;51.796;10.952;2022-11-20T04:06:28;98496.75;;;-4.23;100.00
18988;BME280;5494;51.796;10.952;2022-11-20T04:08:58;98500.97;;;-4.24;100.00
18988;BME280;5494;51.796;10.952;2022-11-20T04:11:29;98489.97;;;-4.26;100.00
18988;BME280;5494;51.796;10.952;2022-11-20T04:14:01;98490.81;;;-4.25;100.00
18988;BME280;5494;51.796;10.952;2022-11-20T04:16:33;98495.91;;;-4.24;100.00
18988;BME280;5494;51.796;10.952;2022-11-20T04:19:04;98482.38;;;-4.26;100.00
18988;BME280;5494;51.796;10.952;2022-11-20T04:21:33;98481.53;;;-4.25;100.00
18988;BME280;5494;51.796;10.952;2022-11-20T04:24:02;98484.06;;;-4.23;100.00
18988;BME280;5494;51.796;10.952;2022-11-20T04:26:31;98489.97;;;-4.24;100.00
18988;BME280;5494;51.796;10.952;2022-11-20T04:29:01;98490.00;;;-4.23;100.00
18988;BME280;5494;51.796;10.952;2022-11-20T04:31:33;98479.84;;;-4.23;100.00
18988;BME280;5494;51.796;10.952;2022-11-20T04:34:04;98484.06;;;-4.23;100.00
18988;BME280;5494;51.796;10.952;2022-11-20T04:36:33;98470.53;;;-4.24;100.00
18988;BME280;5494;51.796;10.952;2022-11-20T04:39:05;98476.44;;;-4.25;100.00
18988;BME280;5494;51.796;10.952;2022-11-20T04:41:35;98470.53;;;-4.27;100.00
18988;BME280;5494;51.796;10.952;2022-11-20T04:44:06;98467.16;;;-4.26;100.00
18988;BME280;5494;51.796;10.952;2022-11-20T04:46:37;98468.84;;;-4.20;100.00
18988;BME280;5494;51.796;10.952;2022-11-20T04:49:07;98465.47;;;-4.22;100.00
18988;BME280;5494;51.796;10.952;2022-11-20T04:51:35;98466.28;;;-4.19;100.00
18988;BME280;5494;51.796;10.952;2022-11-20T04:54:04;98471.38;;;-4.23;100.00
18988;BME280;5494;51.796;10.952;2022-11-20T04:56:32;98471.41;;;-4.22;100.00
18988;BME280;5494;51.796;10.952;2022-11-20T04:59:02;98472.22;;;-4.23;100.00
18988;BME280;5494;51.796;10.952;2022-11-20T05:01:32;98462.94;;;-4.22;100.00
18988;BME280;5494;51.796;10.952;2022-11-20T05:04:00;98463.75;;;-4.19;100.00
18988;BME280;5494;51.796;10.952;2022-11-20T05:06:29;98463.78;;;-4.22;100.00
18988;BME280;5494;51.796;10.952;2022-11-20T05:08:57;98465.44;;;-4.21;99.99
18988;BME280;5494;51.796;10.952;2022-11-20T05:11:26;98459.56;;;-4.23;99.80
18988;BME280;5494;51.796;10.952;2022-11-20T05:13:58;98455.31;;;-4.24;99.88
18988;BME280;5494;51.796;10.952;2022-11-20T05:16:27;98461.22;;;-4.25;99.72
18988;BME280;5494;51.796;10.952;2022-11-20T05:18:57;98452.78;;;-4.18;99.56
18988;BME280;5494;51.796;10.952;2022-11-20T05:21:26;98455.31;;;-4.24;98.91
18988;BME280;5494;51.796;10.952;2022-11-20T05:23:54;98456.16;;;-4.26;98.69
18988;BME280;5494;51.796;10.952;2022-11-20T05:26:23;98453.63;;;-4.25;98.34
18988;BME280;5494;51.796;10.952;2022-11-20T05:28:51;98464.63;;;-4.29;98.40
18988;BME280;5494;51.796;10.952;2022-11-20T05:31:24;98455.31;;;-4.33;98.39
18988;BME280;5494;51.796;10.952;2022-11-20T05:33:57;98440.94;;;-4.45;98.42
18988;BME280;5494;51.796;10.952;2022-11-20T05:36:25;98451.94;;;-4.43;98.41
18988;BME280;5494;51.796;10.952;2022-11-20T05:38:53;98450.25;;;-4.51;98.57
18988;BME280;5494;51.796;10.952;2022-11-20T05:41:28;98452.78;;;-4.47;98.74
18988;BME280;5494;51.796;10.952;2022-11-20T05:43:57;98446.84;;;-4.53;99.02
18988;BME280;5494;51.796;10.952;2022-11-20T05:46:26;98451.91;;;-4.56;99.38
18988;BME280;5494;51.796;10.952;2022-11-20T05:48:58;98451.91;;;-4.62;99.06
18988;BME280;5494;51.796;10.952;2022-11-20T05:51:27;98449.41;;;-4.59;99.40
18988;BME280;5494;51.796;10.952;2022-11-20T05:53:56;98450.25;;;-4.65;99.50
18988;BME280;5494;51.796;10.952;2022-11-20T05:56:25;98441.78;;;-4.65;99.51
18988;BME280;5494;51.796;10.952;2022-11-20T05:58:54;98442.63;;;-4.71;99.40
18988;BME280;5494;51.796;10.952;2022-11-20T06:01:25;98438.41;;;-4.70;99.43
18988;BME280;5494;51.796;10.952;2022-11-20T06:03:54;98430.78;;;-4.75;99.28
18988;BME280;5494;51.796;10.952;2022-11-20T06:06:24;98443.47;;;-4.80;99.41
18988;BME280;5494;51.796;10.952;2022-11-20T06:08:54;98433.31;;;-4.61;99.31
18988;BME280;5494;51.796;10.952;2022-11-20T06:11:22;98429.97;;;-4.59;99.10
18988;BME280;5494;51.796;10.952;2022-11-20T06:13:51;98432.50;;;-4.59;98.59
18988;BME280;5494;51.796;10.952;2022-11-20T06:16:20;98435.84;;;-4.55;98.30
18988;BME280;5494;51.796;10.952;2022-11-20T06:18:49;98435.03;;;-4.66;98.01
18988;BME280;5494;51.796;10.952;2022-11-20T06:21:19;98433.34;;;-4.60;98.03
18988;BME280;5494;51.796;10.952;2022-11-20T06:23:52;98435.88;;;-4.61;98.48
18988;BME280;5494;51.796;10.952;2022-11-20T06:26:23;98437.56;;;-4.74;98.47
18988;BME280;5494;51.796;10.952;2022-11-20T06:28:53;98441.78;;;-4.78;98.72
18988;BME280;5494;51.796;10.952;2022-11-20T06:31:25;98440.06;;;-4.88;99.09
18988;BME280;5494;51.796;10.952;2022-11-20T06:33:54;98440.06;;;-4.89;99.23
18988;BME280;5494;51.796;10.952;2022-11-20T06:36:23;98438.38;;;-4.89;99.66
18988;BME280;5494;51.796;10.952;2022-11-20T06:38:53;98443.44;;;-4.89;99.70
18988;BME280;5494;51.796;10.952;2022-11-20T06:41:22;98444.28;;;-4.88;100.00
18988;BME280;5494;51.796;10.952;2022-11-20T06:43:51;98453.56;;;-4.89;100.00
18988;BME280;5494;51.796;10.952;2022-11-20T06:46:20;98447.66;;;-4.94;100.00
18988;BME280;5494;51.796;10.952;2022-11-20T06:48:50;98442.59;;;-4.92;100.00
18988;BME280;5494;51.796;10.952;2022-11-20T06:51:18;98439.22;;;-4.99;100.00
18988;BME280;5494;51.796;10.952;2022-11-20T06:53:48;98434.13;;;-4.97;100.00
18988;BME280;5494;51.796;10.952;2022-11-20T06:56:18;98444.28;;;-4.94;100.00
18988;BME280;5494;51.796;10.952;2022-11-20T06:58:46;98444.28;;;-4.96;100.00
18988;BME280;5494;51.796;10.952;2022-11-20T07:01:15;98433.28;;;-4.90;100.00
18988;BME280;5494;51.796;10.952;2022-11-20T07:03:44;98438.38;;;-4.77;100.00
18988;BME280;5494;51.796;10.952;2022-11-20T07:06:20;98444.31;;;-4.78;100.00
18988;BME280;5494;51.796;10.952;2022-11-20T07:08:50;98429.09;;;-4.68;100.00
18988;BME280;5494;51.796;10.952;2022-11-20T07:11:20;98435.03;;;-4.45;100.00
18988;BME280;5494;51.796;10.952;2022-11-20T07:13:49;98429.06;;;-4.05;100.00
18988;BME280;5494;51.796;10.952;2022-11-20T07:16:18;98430.66;;;-3.63;100.00
18988;BME280;5494;51.796;10.952;2022-11-20T07:18:46;98430.53;;;-3.37;100.00
18988;BME280;5494;51.796;10.952;2022-11-20T07:21:17;98425.38;;;-3.15;98.91
18988;BME280;5494;51.796;10.952;2022-11-20T07:23:46;98426.81;;;-2.75;97.86
18988;BME280;5494;51.796;10.952;2022-11-20T07:26:14;98425.84;;;-2.57;95.63
18988;BME280;5494;51.796;10.952;2022-11-20T07:28:45;98416.19;;;-2.20;94.16
18988;BME280;5494;51.796;10.952;2022-11-20T07:31:14;98430.34;;;-1.92;92.61
18988;BME280;5494;51.796;10.952;2022-11-20T07:33:45;98427.66;;;-1.78;90.17
18988;BME280;5494;51.796;10.952;2022-11-20T07:36:14;98423.25;;;-1.63;87.64
18988;BME280;5494;51.796;10.952;2022-11-20T07:38:43;98426.50;;;-1.51;85.86
18988;BME280;5494;51.796;10.952;2022-11-20T07:41:11;98413.66;;;-1.42;84.66
18988;BME280;5494;51.796;10.952;2022-11-20T07:43:40;98423.69;;;-1.29;83.59
18988;BME280;5494;51.796;10.952;2022-11-20T07:46:10;98415.00;;;-1.12;82.70
18988;BME280;5494;51.796;10.952;2022-11-20T07:48:39;98416.13;;;-0.73;81.39
18988;BME280;5494;51.796;10.952;2022-11-20T07:51:07;98424.13;;;-0.41;79.96
18988;BME280;5494;51.796;10.952;2022-11-20T07:53:36;98424.31;;;-0.01;77.90
18988;BME280;5494;51.796;10.952;2022-11-20T07:56:05;98416.75;;;0.39;76.77
18988;BME280;5494;51.796;10.952;2022-11-20T07:58:33;98418.94;;;0.57;76.45
18988;BME280;5494;51.796;10.952;2022-11-20T08:01:04;98419.66;;;1.04;75.44
18988;BME280;5494;51.796;10.952;2022-11-20T08:03:34;98420.66;;;1.37;73.01
18988;BME280;5494;51.796;10.952;2022-11-20T08:06:05;98417.41;;;1.66;72.04
18988;BME280;5494;51.796;10.952;2022-11-20T08:08:34;98413.88;;;1.70;70.29
18988;BME280;5494;51.796;10.952;2022-11-20T08:11:09;98417.97;;;2.11;69.15
18988;BME280;5494;51.796;10.952;2022-11-20T08:13:54;98415.59;;;2.35;67.81
18988;BME280;5494;51.796;10.952;2022-11-20T08:16:43;98411.31;;;2.67;67.73
18988;BME280;5494;51.796;10.952;2022-11-20T08:19:15;98410.06;;;2.80;65.38
18988;BME280;5494;51.796;10.952;2022-11-20T08:21:44;98408.78;;;2.95;66.03
18988;BME280;5494;51.796;10.952;2022-11-20T08:24:13;98402.78;;;3.24;64.13
18988;BME280;5494;51.796;10.952;2022-11-20T08:26:42;98411.84;;;3.62;63.96
18988;BME280;5494;51.796;10.952;2022-11-20T08:29:10;98412.09;;;3.80;62.23
18988;BME280;5494;51.796;10.952;2022-11-20T08:31:39;98406.63;;;4.16;60.71
18988;BME280;5494;51.796;10.952;2022-11-20T08:34:08;98407.78;;;4.32;59.86
18988;BME280;5494;51.796;10.952;2022-11-20T08:36:43;98405.94;;;4.35;60.31
18988;BME280;5494;51.796;10.952;2022-11-20T08:39:13;98399.59;;;4.69;58.67
18988;BME280;5494;51.796;10.952;2022-11-20T08:41:42;98402.22;;;4.91;58.46
18988;BME280;5494;51.796;10.952;2022-11-20T08:44:10;98393.38;;;4.74;57.71
18988;BME280;5494;51.796;10.952;2022-11-20T08:46:41;98397.22;;;5.09;57.65
18988;BME280;5494;51.796;10.952;2022-11-20T08:49:13;98403.53;;;5.24;57.39
18988;BME280;5494;51.796;10.952;2022-11-20T08:51:43;98403.28;;;5.30;57.40
18988;BME280;5494;51.796;10.952;2022-11-20T08:54:12;98404.88;;;5.54;57.08
18988;BME280;5494;51.796;10.952;2022-11-20T08:56:40;98397.09;;;5.56;57.87
18988;BME280;5494;51.796;10.952;2022-11-20T08:59:09;98400.19;;;5.86;57.05
18988;BME280;5494;51.796;10.952;2022-11-20T09:01:57;98397.75;;;6.03;56.67
18988;BME280;5494;51.796;10.952;2022-11-20T09:04:26;98401.06;;;6.27;56.44
18988;BME280;5494;51.796;10.952;2022-11-20T09:06:56;98406.41;;;6.43;56.71
18988;BME280;5494;51.796;10.952;2022-11-20T09:09:24;98396.66;;;6.49;55.10
18988;BME280;5494;51.796;10.952;2022-11-20T09:11:53;98398.91;;;6.57;55.08
18988;BME280;5494;51.796;10.952;2022-11-20T09:14:21;98393.59;;;6.79;53.49
18988;BME280;5494;51.796;10.952;2022-11-20T09:16:51;98391.22;;;6.93;53.29
18988;BME280;5494;51.796;10.952;2022-11-20T09:19:20;98390.88;;;7.00;52.63
18988;BME280;5494;51.796;10.952;2022-11-20T09:22:05;98391.44;;;7.07;53.67
18988;BME280;5494;51.796;10.952;2022-11-20T09:24:34;98378.88;;;7.18;51.18
18988;BME280;5494;51.796;10.952;2022-11-20T09:27:04;98389.25;;;6.60;50.80
18988;BME280;5494;51.796;10.952;2022-11-20T09:29:33;98385.44;;;6.88;52.82
18988;BME280;5494;51.796;10.952;2022-11-20T09:32:02;98379.34;;;7.07;50.69
18988;BME280;5494;51.796;10.952;2022-11-20T09:34:30;98377.97;;;7.00;51.53
18988;BME280;5494;51.796;10.952;2022-11-20T09:36:59;98383.34;;;6.38;50.26
18988;BME280;5494;51.796;10.952;2022-11-20T09:39:34;98388.06;;;6.49;52.25
18988;BME280;5494;51.796;10.952;2022-11-20T09:42:24;98386.00;;;6.37;51.41
18988;BME280;5494;51.796;10.952;2022-11-20T09:45:22;98386.38;;;6.48;51.80
18988;BME280;5494;51.796;10.952;2022-11-20T09:48:08;98379.16;;;6.75;51.45
18988;BME280;5494;51.796;10.952;2022-11-20T09:50:48;98375.88;;;7.08;50.78
18988;BME280;5494;51.796;10.952;2022-11-20T09:53:30;98370.41;;;7.15;50.61
18988;BME280;5494;51.796;10.952;2022-11-20T09:56:04;98369.13;;;7.42;50.04
18988;BME280;5494;51.796;10.952;2022-11-20T09:58:40;98365.81;;;7.74;48.71
18988;BME280;5494;51.796;10.952;2022-11-20T10:01:14;98366.06;;;7.87;50.58
18988;BME280;5494;51.796;10.952;2022-11-20T10:03:55;98369.22;;;8.09;51.31
18988;BME280;5494;51.796;10.952;2022-11-20T10:06:31;98361.16;;;8.15;51.71
18988;BME280;5494;51.796;10.952;2022-11-20T10:09:16;98367.53;;;7.57;54.05
18988;BME280;5494;51.796;10.952;2022-11-20T10:12:03;98357.44;;;7.69;54.06
18988;BME280;5494;51.796;10.952;2022-11-20T10:14:50;98364.75;;;7.78;54.79
18988;BME280;5494;51.796;10.952;2022-11-20T10:17:53;98363.50;;;7.68;53.16
18988;BME280;5494;51.796;10.952;2022-11-20T10:20:30;98365.88;;;7.56;54.90
18988;BME280;5494;51.796;10.952;2022-11-20T10:23:35;98368.81;;;7.48;55.58
18988;BME280;5494;51.796;10.952;2022-11-20T10:26:21;98365.31;;;7.49;56.33
18988;BME280;5494;51.796;10.952;2022-11-20T10:29:10;98363.97;;;7.23;56.13
18988;BME280;5494;51.796;10.952;2022-11-20T10:31:42;98361.63;;;7.19;55.64
18988;BME280;5494;51.796;10.952;2022-11-20T10:34:22;98365.69;;;6.87;54.36
18988;BME280;5494;51.796;10.952;2022-11-20T10:36:56;98376.06;;;6.48;55.54
18988;BME280;5494;51.796;10.952;2022-11-20T10:39:35;98372.19;;;6.38;55.31
18988;BME280;5494;51.796;10.952;2022-11-20T10:42:11;98365.88;;;6.24;56.22
18988;BME280;5494;51.796;10.952;2022-11-20T10:44:52;98363.28;;;6.45;55.96
18988;BME280;5494;51.796;10.952;2022-11-20T10:47:33;98361.53;;;6.64;55.45
18988;BME280;5494;51.796;10.952;2022-11-20T10:50:08;98358.06;;;6.65;55.97
18988;BME280;5494;51.796;10.952;2022-11-20T10:52:49;98361.34;;;6.50;56.86
18988;BME280;5494;51.796;10.952;2022-11-20T10:55:33;98355.19;;;6.71;56.97
18988;BME280;5494;51.796;10.952;2022-11-20T10:58:14;98348.28;;;6.71;55.16
18988;BME280;5494;51.796;10.952;2022-11-20T11:00:44;98346.53;;;6.72;54.34
18988;BME280;5494;51.796;10.952;2022-11-20T11:03:24;98351.16;;;6.65;57.13
18988;BME280;5494;51.796;10.952;2022-11-20T11:06:03;98341.66;;;6.66;56.47
18988;BME280;5494;51.796;10.952;2022-11-20T11:08:38;98340.97;;;6.81;56.85
18988;BME280;5494;51.796;10.952;2022-11-20T11:11:20;98330.28;;;6.89;54.29
18988;BME280;5494;51.796;10.952;2022-11-20T11:13:50;98339.16;;;6.83;56.14
18988;BME280;5494;51.796;10.952;2022-11-20T11:16:25;98328.84;;;6.83;56.71
18988;BME280;5494;51.796;10.952;2022-11-20T11:19:05;98326.09;;;6.86;55.25
18988;BME280;5494;51.796;10.952;2022-11-20T11:21:34;98310.97;;;6.60;57.12
18988;BME280;5494;51.796;10.952;2022-11-20T11:24:04;98308.28;;;6.24;57.70
18988;BME280;5494;51.796;10.952;2022-11-20T11:26:57;98297.47;;;5.96;56.47
18988;BME280;5494;51.796;10.952;2022-11-20T11:29:26;98301.78;;;5.54;56.88
18988;BME280;5494;51.796;10.952;2022-11-20T11:32:07;98296.34;;;5.61;56.86
18988;BME280;5494;51.796;10.952;2022-11-20T11:34:35;98291.66;;;5.70;59.15
18988;BME280;5494;51.796;10.952;2022-11-20T11:37:12;98279.63;;;5.50;58.72
18988;BME280;5494;51.796;10.952;2022-11-20T11:39:43;98271.41;;;5.21;59.69
18988;BME280;5494;51.796;10.952;2022-11-20T11:42:18;98275.25;;;4.89;59.27
18988;BME280;5494;51.796;10.952;2022-11-20T11:44:48;98276.16;;;4.66;62.51
18988;BME280;5494;51.796;10.952;2022-11-20T11:47:48;98271.81;;;4.45;62.22
18988;BME280;5494;51.796;10.952;2022-11-20T11:50:22;98266.97;;;4.14;62.65
18988;BME280;5494;51.796;10.952;2022-11-20T11:53:09;98268.63;;;3.91;64.77
18988;BME280;5494;51.796;10.952;2022-11-20T11:55:42;98271.72;;;3.76;66.03
18988;BME280;5494;51.796;10.952;2022-11-20T11:58:24;98272.22;;;3.63;68.03
18988;BME280;5494;51.796;10.952;2022-11-20T12:01:02;98263.03;;;3.55;69.59
18988;BME280;5494;51.796;10.952;2022-11-20T12:03:36;98262.31;;;3.52;70.21
18988;BME280;5494;51.796;10.952;2022-11-20T12:06:11;98262.63;;;3.43;69.41
18988;BME280;5494;51.796;10.952;2022-11-20T12:08:48;98260.25;;;3.37;69.47
18988;BME280;5494;51.796;10.952;2022-11-20T12:11:29;98265.47;;;3.34;68.96
18988;BME280;5494;51.796;10.952;2022-11-20T12:14:09;98244.94;;;3.34;69.99
18988;BME280;5494;51.796;10.952;2022-11-20T12:16:40;98245.06;;;3.31;69.04
18988;BME280;5494;51.796;10.952;2022-11-20T12:19:13;98244.94;;;3.34;69.62
18988;BME280;5494;51.796;10.952;2022-11-20T12:21:55;98247.72;;;3.28;68.29
18988;BME280;5494;51.796;10.952;2022-11-20T12:24:51;98247.00;;;3.24;68.18
18988;BME280;5494;51.796;10.952;2022-11-20T12:28:06;98245.25;;;3.25;67.37
18988;BME280;5494;51.796;10.952;2022-11-20T12:30:50;98252.50;;;3.38;65.41
18988;BME280;5494;51.796;10.952;2022-11-20T12:33:48;98259.72;;;3.27;66.56
18988;BME280;5494;51.796;10.952;2022-11-20T12:36:34;98263.75;;;3.34;66.33
18988;BME280;5494;51.796;10.952;2022-11-20T12:39:30;98257.09;;;3.29;67.75
18988;BME280;5494;51.796;10.952;2022-11-20T12:42:23;98253.06;;;3.22;67.87
18988;BME280;5494;51.796;10.952;2022-11-20T12:45:46;98249.22;;;3.33;65.53
18988;BME280;5494;51.796;10.952;2022-11-20T12:49:17;98246.53;;;3.38;65.67
18988;BME280;5494;51.796;10.952;2022-11-20T12:52:17;98243.75;;;3.44;63.60
18988;BME280;5494;51.796;10.952;2022-11-20T12:57:56;98256.31;;;3.27;70.06
18988;BME280;5494;51.796;10.952;2022-11-20T13:00:27;98270.44;;;3.13;74.51
18988;BME280;5494;51.796;10.952;2022-11-20T13:03:42;98275.22;;;2.98;77.12
18988;BME280;5494;51.796;10.952;2022-11-20T13:06:16;98270.00;;;2.73;78.69
18988;BME280;5494;51.796;10.952;2022-11-20T13:08:52;98272.09;;;2.62;79.73
18988;BME280;5494;51.796;10.952;2022-11-20T13:11:32;98268.03;;;2.55;79.97
18988;BME280;5494;51.796;10.952;2022-11-20T13:14:14;98273.22;;;2.52;79.97
18988;BME280;5494;51.796;10.952;2022-11-20T13:16:54;98275.34;;;2.37;81.64
18988;BME280;5494;51.796;10.952;2022-11-20T13:19:32;98261.06;;;2.29;82.47
18988;BME280;5494;51.796;10.952;2022-11-20T13:22:02;98269.94;;;2.19;82.26
18988;BME280;5494;51.796;10.952;2022-11-20T13:24:32;98265.50;;;2.24;81.73
18988;BME280;5494;51.796;10.952;2022-11-20T13:27:18;98273.63;;;2.09;82.43
18988;BME280;5494;51.796;10.952;2022-11-20T13:30:03;98272.22;;;1.98;82.62
18988;BME280;5494;51.796;10.952;2022-11-20T13:32:49;98265.31;;;2.01;82.00
18988;BME280;5494;51.796;10.952;2022-11-20T13:35:30;98261.94;;;2.00;82.66
18988;BME280;5494;51.796;10.952;2022-11-20T13:38:04;98258.69;;;1.93;82.30